sensor_id;sensor_type;location;lat;lon;timestamp;temperature;humidity
59961;DHT22;55902;-37.980;-63.602;2022-12-24T00:01:04;16.70;99.90
59961;DHT22;55902;-37.980;-63.602;2022-12-24T00:03:32;16.80;99.90
59961;DHT22;55902;-37.980;-63.602;2022-12-24T00:06:17;16.80;99.90
59961;DHT22;55902;-37.980;-63.602;2022-12-24T00:08:43;16.80;99.90
59961;DHT22;55902;-37.980;-63.602;2022-12-24T00:11:10;16.80;99.90
59961;DHT22;55902;-37.980;-63.602;2022-12-24T00:13:37;16.80;99.90
59961;DHT22;55902;-37.980;-63.602;2022-12-24T00:16:05;16.80;99.90
59961;DHT22;55902;-37.980;-63.602;2022-12-24T00:18:32;16.70;99.90
59961;DHT22;55902;-37.980;-63.602;2022-12-24T00:21:03;16.70;99.90
59961;DHT22;55902;-37.980;-63.602;2022-12-24T00:23:32;16.70;99.90
59961;DHT22;55902;-37.980;-63.602;2022-12-24T00:25:59;16.60;99.90
59961;DHT22;55902;-37.980;-63.602;2022-12-24T00:28:25;16.50;99.90
59961;DHT22;55902;-37.980;-63.602;2022-12-24T00:30:55;16.50;99.90
59961;DHT22;55902;-37.980;-63.602;2022-12-24T00:33:22;16.40;99.90
59961;DHT22;55902;-37.980;-63.602;2022-12-24T00:35:52;16.40;99.90
59961;DHT22;55902;-37.980;-63.602;2022-12-24T00:38:19;16.30;99.90
59961;DHT22;55902;-37.980;-63.602;2022-12-24T00:40:46;16.30;99.90
59961;DHT22;55902;-37.980;-63.602;2022-12-24T00:43:13;16.20;99.90
59961;DHT22;55902;-37.980;-63.602;2022-12-24T00:45:44;16.20;99.90
59961;DHT22;55902;-37.980;-63.602;2022-12-24T00:48:12;16.10;99.90
59961;DHT22;55902;-37.980;-63.602;2022-12-24T00:50:42;16.10;99.90
59961;DHT22;55902;-37.980;-63.602;2022-12-24T00:53:09;16.10;99.90
59961;DHT22;55902;-37.980;-63.602;2022-12-24T00:55:36;16.10;99.90
59961;DHT22;55902;-37.980;-63.602;2022-12-24T00:58:03;16.10;99.90
59961;DHT22;55902;-37.980;-63.602;2022-12-24T01:00:30;16.00;99.90
59961;DHT22;55902;-37.980;-63.602;2022-12-24T01:02:57;16.00;99.90
59961;DHT22;55902;-37.980;-63.602;2022-12-24T01:05:28;16.00;99.90
59961;DHT22;55902;-37.980;-63.602;2022-12-24T01:07:54;15.90;99.90
59961;DHT22;55902;-37.980;-63.602;2022-12-24T01:10:21;15.90;99.90
59961;DHT22;55902;-37.980;-63.602;2022-12-24T01:12:48;15.90;99.90
59961;DHT22;55902;-37.980;-63.602;2022-12-24T01:15:18;15.90;99.90
59961;DHT22;55902;-37.980;-63.602;2022-12-24T01:17:45;15.90;99.90
59961;DHT22;55902;-37.980;-63.602;2022-12-24T01:20:17;15.80;99.90
59961;DHT22;55902;-37.980;-63.602;2022-12-24T01:22:44;15.80;99.90
59961;DHT22;55902;-37.980;-63.602;2022-12-24T01:25:11;15.80;99.90
59961;DHT22;55902;-37.980;-63.602;2022-12-24T01:27:38;15.80;99.90
59961;DHT22;55902;-37.980;-63.602;2022-12-24T01:30:13;15.70;99.90
59961;DHT22;55902;-37.980;-63.602;2022-12-24T01:32:40;15.70;99.90
59961;DHT22;55902;-37.980;-63.602;2022-12-24T01:35:12;15.70;99.90
59961;DHT22;55902;-37.980;-63.602;2022-12-24T01:37:39;15.60;99.90
59961;DHT22;55902;-37.980;-63.602;2022-12-24T01:40:09;15.60;99.90
59961;DHT22;55902;-37.980;-63.602;2022-12-24T01:42:57;15.60;99.90
59961;DHT22;55902;-37.980;-63.602;2022-12-24T01:45:58;15.60;99.90
59961;DHT22;55902;-37.980;-63.602;2022-12-24T01:48:35;15.60;99.90
59961;DHT22;55902;-37.980;-63.602;2022-12-24T01:53:44;15.50;99.90
59961;DHT22;55902;-37.980;-63.602;2022-12-24T01:56:13;15.50;99.90
59961;DHT22;55902;-37.980;-63.602;2022-12-24T01:58:43;15.50;99.90
59961;DHT22;55902;-37.980;-63.602;2022-12-24T02:01:16;15.50;99.90
59961;DHT22;55902;-37.980;-63.602;2022-12-24T02:03:43;15.50;99.90
59961;DHT22;55902;-37.980;-63.602;2022-12-24T02:06:16;15.50;99.90
59961;DHT22;55902;-37.980;-63.602;2022-12-24T02:08:45;15.40;99.90
59961;DHT22;55902;-37.980;-63.602;2022-12-24T02:11:15;15.40;99.90
59961;DHT22;55902;-37.980;-63.602;2022-12-24T02:13:54;15.50;99.90
59961;DHT22;55902;-37.980;-63.602;2022-12-24T02:16:50;15.50;99.90
59961;DHT22;55902;-37.980;-63.602;2022-12-24T02:23:10;15.40;99.90
59961;DHT22;55902;-37.980;-63.602;2022-12-24T02:26:31;15.40;99.90
59961;DHT22;55902;-37.980;-63.602;2022-12-24T02:37:58;15.40;99.90
59961;DHT22;55902;-37.980;-63.602;2022-12-24T02:40:31;15.40;99.90
59961;DHT22;55902;-37.980;-63.602;2022-12-24T02:43:04;15.40;99.90
59961;DHT22;55902;-37.980;-63.602;2022-12-24T02:45:35;15.40;99.90
59961;DHT22;55902;-37.980;-63.602;2022-12-24T02:48:05;15.40;99.90
59961;DHT22;55902;-37.980;-63.602;2022-12-24T02:50:35;15.40;99.90
59961;DHT22;55902;-37.980;-63.602;2022-12-24T02:53:02;15.30;99.90
59961;DHT22;55902;-37.980;-63.602;2022-12-24T02:55:43;15.30;99.90
59961;DHT22;55902;-37.980;-63.602;2022-12-24T03:11:51;15.00;99.90
59961;DHT22;55902;-37.980;-63.602;2022-12-24T03:14:19;15.00;99.90
59961;DHT22;55902;-37.980;-63.602;2022-12-24T03:16:48;15.00;99.90
59961;DHT22;55902;-37.980;-63.602;2022-12-24T03:19:16;14.90;99.90
59961;DHT22;55902;-37.980;-63.602;2022-12-24T03:21:47;14.90;99.90
59961;DHT22;55902;-37.980;-63.602;2022-12-24T03:24:15;14.90;99.90
59961;DHT22;55902;-37.980;-63.602;2022-12-24T03:26:44;14.90;99.90
59961;DHT22;55902;-37.980;-63.602;2022-12-24T03:29:12;14.80;99.90
59961;DHT22;55902;-37.980;-63.602;2022-12-24T03:31:46;14.80;99.90
59961;DHT22;55902;-37.980;-63.602;2022-12-24T03:34:14;14.80;99.90
59961;DHT22;55902;-37.980;-63.602;2022-12-24T03:36:45;14.80;99.90
59961;DHT22;55902;-37.980;-63.602;2022-12-24T03:39:13;14.70;99.90
59961;DHT22;55902;-37.980;-63.602;2022-12-24T03:41:39;14.70;99.90
59961;DHT22;55902;-37.980;-63.602;2022-12-24T03:44:06;14.70;99.90
59961;DHT22;55902;-37.980;-63.602;2022-12-24T03:46:37;14.70;99.90
59961;DHT22;55902;-37.980;-63.602;2022-12-24T03:49:04;14.70;99.90
59961;DHT22;55902;-37.980;-63.602;2022-12-24T03:51:31;14.70;99.90
59961;DHT22;55902;-37.980;-63.602;2022-12-24T03:53:59;14.60;99.90
59961;DHT22;55902;-37.980;-63.602;2022-12-24T03:56:26;14.60;99.90
59961;DHT22;55902;-37.980;-63.602;2022-12-24T03:58:53;14.70;99.90
59961;DHT22;55902;-37.980;-63.602;2022-12-24T04:01:20;14.60;99.90
59961;DHT22;55902;-37.980;-63.602;2022-12-24T04:03:47;14.60;99.90
59961;DHT22;55902;-37.980;-63.602;2022-12-24T04:06:15;14.60;99.90
59961;DHT22;55902;-37.980;-63.602;2022-12-24T04:08:43;14.60;99.90
59961;DHT22;55902;-37.980;-63.602;2022-12-24T04:11:12;14.60;99.90
59961;DHT22;55902;-37.980;-63.602;2022-12-24T04:13:42;14.60;99.90
59961;DHT22;55902;-37.980;-63.602;2022-12-24T04:16:16;14.60;99.90
59961;DHT22;55902;-37.980;-63.602;2022-12-24T04:18:43;14.50;99.90
59961;DHT22;55902;-37.980;-63.602;2022-12-24T04:21:11;14.50;99.90
59961;DHT22;55902;-37.980;-63.602;2022-12-24T04:23:39;14.50;99.90
59961;DHT22;55902;-37.980;-63.602;2022-12-24T04:26:09;14.50;99.90
59961;DHT22;55902;-37.980;-63.602;2022-12-24T04:28:37;14.40;99.90
59961;DHT22;55902;-37.980;-63.602;2022-12-24T04:31:13;14.40;99.90
59961;DHT22;55902;-37.980;-63.602;2022-12-24T04:33:40;14.30;99.90
59961;DHT22;55902;-37.980;-63.602;2022-12-24T04:36:09;14.30;99.90
59961;DHT22;55902;-37.980;-63.602;2022-12-24T04:38:37;14.30;99.90
59961;DHT22;55902;-37.980;-63.602;2022-12-24T04:41:07;14.20;99.90
59961;DHT22;55902;-37.980;-63.602;2022-12-24T04:43:35;14.20;99.90
59961;DHT22;55902;-37.980;-63.602;2022-12-24T04:46:10;14.20;99.90
59961;DHT22;55902;-37.980;-63.602;2022-12-24T04:48:43;14.20;99.90
59961;DHT22;55902;-37.980;-63.602;2022-12-24T04:51:10;14.20;99.90
59961;DHT22;55902;-37.980;-63.602;2022-12-24T04:53:41;14.20;99.90
59961;DHT22;55902;-37.980;-63.602;2022-12-24T04:56:16;14.10;99.90
59961;DHT22;55902;-37.980;-63.602;2022-12-24T04:58:47;14.10;99.90
59961;DHT22;55902;-37.980;-63.602;2022-12-24T05:01:23;14.10;99.90
59961;DHT22;55902;-37.980;-63.602;2022-12-24T05:03:55;14.00;99.90
59961;DHT22;55902;-37.980;-63.602;2022-12-24T05:06:26;14.00;99.90
59961;DHT22;55902;-37.980;-63.602;2022-12-24T05:08:58;14.00;99.90
59961;DHT22;55902;-37.980;-63.602;2022-12-24T05:11:25;14.00;99.90
59961;DHT22;55902;-37.980;-63.602;2022-12-24T05:13:52;13.90;99.90
59961;DHT22;55902;-37.980;-63.602;2022-12-24T05:16:21;13.90;99.90
59961;DHT22;55902;-37.980;-63.602;2022-12-24T05:18:51;13.90;99.90
59961;DHT22;55902;-37.980;-63.602;2022-12-24T05:21:21;13.90;99.90
59961;DHT22;55902;-37.980;-63.602;2022-12-24T05:23:51;13.80;99.90
59961;DHT22;55902;-37.980;-63.602;2022-12-24T05:29:11;13.80;99.90
59961;DHT22;55902;-37.980;-63.602;2022-12-24T05:31:38;13.80;99.90
59961;DHT22;55902;-37.980;-63.602;2022-12-24T05:34:10;13.70;99.90
59961;DHT22;55902;-37.980;-63.602;2022-12-24T05:36:37;13.70;99.90
59961;DHT22;55902;-37.980;-63.602;2022-12-24T05:39:16;13.60;99.90
59961;DHT22;55902;-37.980;-63.602;2022-12-24T05:41:44;13.60;99.90
59961;DHT22;55902;-37.980;-63.602;2022-12-24T05:44:16;13.60;99.90
59961;DHT22;55902;-37.980;-63.602;2022-12-24T05:46:43;13.60;99.90
59961;DHT22;55902;-37.980;-63.602;2022-12-24T05:49:12;13.60;99.90
59961;DHT22;55902;-37.980;-63.602;2022-12-24T05:51:43;13.60;99.90
59961;DHT22;55902;-37.980;-63.602;2022-12-24T05:54:10;13.50;99.90
59961;DHT22;55902;-37.980;-63.602;2022-12-24T05:56:42;13.50;99.90
59961;DHT22;55902;-37.980;-63.602;2022-12-24T05:59:09;13.50;99.90
59961;DHT22;55902;-37.980;-63.602;2022-12-24T06:01:35;13.50;99.90
59961;DHT22;55902;-37.980;-63.602;2022-12-24T06:04:02;13.50;99.90
59961;DHT22;55902;-37.980;-63.602;2022-12-24T06:06:34;13.40;99.90
59961;DHT22;55902;-37.980;-63.602;2022-12-24T06:09:01;13.40;99.90
59961;DHT22;55902;-37.980;-63.602;2022-12-24T06:11:28;13.40;99.90
59961;DHT22;55902;-37.980;-63.602;2022-12-24T06:13:55;13.40;99.90
59961;DHT22;55902;-37.980;-63.602;2022-12-24T06:16:27;13.30;99.90
59961;DHT22;55902;-37.980;-63.602;2022-12-24T06:18:54;13.30;99.90
59961;DHT22;55902;-37.980;-63.602;2022-12-24T06:21:25;13.30;99.90
59961;DHT22;55902;-37.980;-63.602;2022-12-24T06:23:52;13.30;99.90
59961;DHT22;55902;-37.980;-63.602;2022-12-24T06:26:21;13.30;99.90
59961;DHT22;55902;-37.980;-63.602;2022-12-24T06:28:49;13.30;99.90
59961;DHT22;55902;-37.980;-63.602;2022-12-24T06:31:22;13.20;99.90
59961;DHT22;55902;-37.980;-63.602;2022-12-24T06:33:50;13.20;99.90
59961;DHT22;55902;-37.980;-63.602;2022-12-24T06:36:24;13.20;99.90
59961;DHT22;55902;-37.980;-63.602;2022-12-24T06:38:52;13.10;99.90
59961;DHT22;55902;-37.980;-63.602;2022-12-24T06:41:20;13.10;99.90
59961;DHT22;55902;-37.980;-63.602;2022-12-24T06:43:50;13.10;99.90
59961;DHT22;55902;-37.980;-63.602;2022-12-24T06:46:20;13.00;99.90
59961;DHT22;55902;-37.980;-63.602;2022-12-24T06:48:47;13.00;99.90
59961;DHT22;55902;-37.980;-63.602;2022-12-24T06:51:18;13.00;99.90
59961;DHT22;55902;-37.980;-63.602;2022-12-24T06:53:45;13.00;99.90
59961;DHT22;55902;-37.980;-63.602;2022-12-24T06:56:13;13.00;99.90
59961;DHT22;55902;-37.980;-63.602;2022-12-24T06:58:41;12.90;99.90
59961;DHT22;55902;-37.980;-63.602;2022-12-24T07:01:11;12.90;99.90
59961;DHT22;55902;-37.980;-63.602;2022-12-24T07:03:42;12.90;99.90
59961;DHT22;55902;-37.980;-63.602;2022-12-24T07:06:25;12.90;99.90
59961;DHT22;55902;-37.980;-63.602;2022-12-24T07:08:56;12.80;99.90
59961;DHT22;55902;-37.980;-63.602;2022-12-24T07:11:23;12.80;99.90
59961;DHT22;55902;-37.980;-63.602;2022-12-24T07:13:54;12.80;99.90
59961;DHT22;55902;-37.980;-63.602;2022-12-24T07:16:21;12.80;99.90
59961;DHT22;55902;-37.980;-63.602;2022-12-24T07:18:52;12.80;99.90
59961;DHT22;55902;-37.980;-63.602;2022-12-24T07:21:19;12.70;99.90
59961;DHT22;55902;-37.980;-63.602;2022-12-24T07:23:49;12.70;99.90
59961;DHT22;55902;-37.980;-63.602;2022-12-24T07:26:16;12.70;99.90
59961;DHT22;55902;-37.980;-63.602;2022-12-24T07:28:45;12.70;99.90
59961;DHT22;55902;-37.980;-63.602;2022-12-24T07:31:12;12.70;99.90
59961;DHT22;55902;-37.980;-63.602;2022-12-24T07:33:43;12.70;99.90
59961;DHT22;55902;-37.980;-63.602;2022-12-24T07:36:18;12.60;99.90
59961;DHT22;55902;-37.980;-63.602;2022-12-24T07:38:50;12.60;99.90
59961;DHT22;55902;-37.980;-63.602;2022-12-24T07:41:18;12.60;99.90
59961;DHT22;55902;-37.980;-63.602;2022-12-24T07:43:48;12.60;99.90
59961;DHT22;55902;-37.980;-63.602;2022-12-24T07:46:15;12.60;99.90
59961;DHT22;55902;-37.980;-63.602;2022-12-24T07:48:41;12.50;99.90
59961;DHT22;55902;-37.980;-63.602;2022-12-24T07:51:08;12.50;99.90
59961;DHT22;55902;-37.980;-63.602;2022-12-24T07:53:40;12.50;99.90
59961;DHT22;55902;-37.980;-63.602;2022-12-24T07:56:16;12.50;99.90
59961;DHT22;55902;-37.980;-63.602;2022-12-24T07:58:48;12.50;99.90
59961;DHT22;55902;-37.980;-63.602;2022-12-24T08:01:15;12.40;99.90
59961;DHT22;55902;-37.980;-63.602;2022-12-24T08:03:46;12.40;99.90
59961;DHT22;55902;-37.980;-63.602;2022-12-24T08:06:13;12.40;99.90
59961;DHT22;55902;-37.980;-63.602;2022-12-24T08:08:44;12.40;99.90
59961;DHT22;55902;-37.980;-63.602;2022-12-24T08:11:11;12.40;99.90
59961;DHT22;55902;-37.980;-63.602;2022-12-24T08:13:41;12.40;99.90
59961;DHT22;55902;-37.980;-63.602;2022-12-24T08:16:08;12.30;99.90
59961;DHT22;55902;-37.980;-63.602;2022-12-24T08:18:35;12.30;99.90
59961;DHT22;55902;-37.980;-63.602;2022-12-24T08:21:05;12.30;99.90
59961;DHT22;55902;-37.980;-63.602;2022-12-24T08:23:36;12.30;99.90
59961;DHT22;55902;-37.980;-63.602;2022-12-24T08:26:07;12.20;99.90
59961;DHT22;55902;-37.980;-63.602;2022-12-24T08:28:37;12.20;99.90
59961;DHT22;55902;-37.980;-63.602;2022-12-24T08:31:04;12.20;99.90
59961;DHT22;55902;-37.980;-63.602;2022-12-24T08:33:31;12.20;99.90
59961;DHT22;55902;-37.980;-63.602;2022-12-24T08:36:02;12.20;99.90
59961;DHT22;55902;-37.980;-63.602;2022-12-24T08:38:29;12.20;99.90
59961;DHT22;55902;-37.980;-63.602;2022-12-24T08:40:56;12.10;99.90
59961;DHT22;55902;-37.980;-63.602;2022-12-24T08:43:23;12.10;99.90
59961;DHT22;55902;-37.980;-63.602;2022-12-24T08:46:04;12.10;99.90
59961;DHT22;55902;-37.980;-63.602;2022-12-24T08:48:32;12.10;99.90
59961;DHT22;55902;-37.980;-63.602;2022-12-24T08:51:10;12.00;99.90
59961;DHT22;55902;-37.980;-63.602;2022-12-24T08:53:38;12.10;99.90
59961;DHT22;55902;-37.980;-63.602;2022-12-24T08:56:07;12.10;99.90
59961;DHT22;55902;-37.980;-63.602;2022-12-24T08:58:35;12.00;99.90
59961;DHT22;55902;-37.980;-63.602;2022-12-24T09:01:14;12.00;99.90
59961;DHT22;55902;-37.980;-63.602;2022-12-24T10:57:35;14.50;99.90
59961;DHT22;55902;-37.980;-63.602;2022-12-24T11:00:04;17.40;99.90
59961;DHT22;55902;-37.980;-63.602;2022-12-24T11:02:36;17.40;99.90
59961;DHT22;55902;-37.980;-63.602;2022-12-24T11:05:09;17.40;99.90
59961;DHT22;55902;-37.980;-63.602;2022-12-24T11:08:16;17.40;99.90
59961;DHT22;55902;-37.980;-63.602;2022-12-24T11:11:10;17.60;99.90
59961;DHT22;55902;-37.980;-63.602;2022-12-24T11:13:42;18.10;99.90
59961;DHT22;55902;-37.980;-63.602;2022-12-24T11:16:24;18.40;99.90
59961;DHT22;55902;-37.980;-63.602;2022-12-24T11:19:05;18.70;99.90
59961;DHT22;55902;-37.980;-63.602;2022-12-24T11:21:41;18.90;99.90
59961;DHT22;55902;-37.980;-63.602;2022-12-24T11:24:37;18.90;99.90
59961;DHT22;55902;-37.980;-63.602;2022-12-24T11:30:23;19.00;99.90
59961;DHT22;55902;-37.980;-63.602;2022-12-24T11:35:32;19.50;99.90
59961;DHT22;55902;-37.980;-63.602;2022-12-24T11:40:44;20.00;99.90
59961;DHT22;55902;-37.980;-63.602;2022-12-24T11:43:19;20.20;99.90
59961;DHT22;55902;-37.980;-63.602;2022-12-24T11:45:56;20.50;99.90
59961;DHT22;55902;-37.980;-63.602;2022-12-24T11:48:32;20.70;99.90
59961;DHT22;55902;-37.980;-63.602;2022-12-24T11:51:05;21.00;99.90
59961;DHT22;55902;-37.980;-63.602;2022-12-24T11:59:32;21.50;98.40
59961;DHT22;55902;-37.980;-63.602;2022-12-24T12:02:18;21.60;92.90
59961;DHT22;55902;-37.980;-63.602;2022-12-24T12:04:58;21.60;94.70
59961;DHT22;55902;-37.980;-63.602;2022-12-24T12:07:35;21.70;95.10
59961;DHT22;55902;-37.980;-63.602;2022-12-24T12:10:14;21.90;94.50
59961;DHT22;55902;-37.980;-63.602;2022-12-24T12:12:59;22.10;92.70
59961;DHT22;55902;-37.980;-63.602;2022-12-24T12:15:44;22.50;89.30
59961;DHT22;55902;-37.980;-63.602;2022-12-24T12:18:15;22.80;88.30
59961;DHT22;55902;-37.980;-63.602;2022-12-24T12:21:02;23.00;77.50
59961;DHT22;55902;-37.980;-63.602;2022-12-24T12:23:35;23.00;71.60
59961;DHT22;55902;-37.980;-63.602;2022-12-24T12:31:29;23.20;67.40
59961;DHT22;55902;-37.980;-63.602;2022-12-24T12:37:04;23.40;67.00
59961;DHT22;55902;-37.980;-63.602;2022-12-24T12:39:35;23.60;65.50
59961;DHT22;55902;-37.980;-63.602;2022-12-24T13:06:25;24.70;50.60
59961;DHT22;55902;-37.980;-63.602;2022-12-24T13:12:10;24.80;49.40
59961;DHT22;55902;-37.980;-63.602;2022-12-24T13:14:44;25.00;50.80
59961;DHT22;55902;-37.980;-63.602;2022-12-24T13:20:30;25.20;51.70
59961;DHT22;55902;-37.980;-63.602;2022-12-24T13:33:16;25.50;47.10
59961;DHT22;55902;-37.980;-63.602;2022-12-24T13:38:38;25.90;45.10
59961;DHT22;55902;-37.980;-63.602;2022-12-24T13:44:15;25.90;45.00
59961;DHT22;55902;-37.980;-63.602;2022-12-24T13:47:00;25.90;43.40
59961;DHT22;55902;-37.980;-63.602;2022-12-24T13:53:31;26.30;43.20
59961;DHT22;55902;-37.980;-63.602;2022-12-24T13:58:49;26.40;41.70
59961;DHT22;55902;-37.980;-63.602;2022-12-24T14:01:21;26.30;41.70
59961;DHT22;55902;-37.980;-63.602;2022-12-24T14:03:53;26.20;40.10
59961;DHT22;55902;-37.980;-63.602;2022-12-24T14:06:34;26.30;41.10
59961;DHT22;55902;-37.980;-63.602;2022-12-24T14:14:30;26.10;38.60
59961;DHT22;55902;-37.980;-63.602;2022-12-24T14:17:02;26.20;37.30
59961;DHT22;55902;-37.980;-63.602;2022-12-24T14:19:47;26.20;37.10
59961;DHT22;55902;-37.980;-63.602;2022-12-24T14:22:37;26.40;37.70
59961;DHT22;55902;-37.980;-63.602;2022-12-24T14:25:21;26.80;38.20
59961;DHT22;55902;-37.980;-63.602;2022-12-24T14:27:54;27.00;38.00
59961;DHT22;55902;-37.980;-63.602;2022-12-24T14:30:28;27.00;35.30
59961;DHT22;55902;-37.980;-63.602;2022-12-24T14:32:56;27.10;36.90
59961;DHT22;55902;-37.980;-63.602;2022-12-24T14:35:33;27.10;37.80
59961;DHT22;55902;-37.980;-63.602;2022-12-24T14:38:06;27.00;37.50
59961;DHT22;55902;-37.980;-63.602;2022-12-24T14:49:28;27.70;37.70
59961;DHT22;55902;-37.980;-63.602;2022-12-24T14:52:22;27.60;37.50
59961;DHT22;55902;-37.980;-63.602;2022-12-24T14:54:54;27.50;38.50
59961;DHT22;55902;-37.980;-63.602;2022-12-24T14:57:25;27.60;39.20
59961;DHT22;55902;-37.980;-63.602;2022-12-24T14:59:57;27.50;38.00
59961;DHT22;55902;-37.980;-63.602;2022-12-24T15:07:40;28.10;40.20
59961;DHT22;55902;-37.980;-63.602;2022-12-24T15:10:26;28.30;37.40
59961;DHT22;55902;-37.980;-63.602;2022-12-24T15:12:55;28.30;36.70
59961;DHT22;55902;-37.980;-63.602;2022-12-24T15:15:23;28.20;36.50
59961;DHT22;55902;-37.980;-63.602;2022-12-24T15:17:53;28.20;36.70
59961;DHT22;55902;-37.980;-63.602;2022-12-24T15:20:23;28.00;36.00
59961;DHT22;55902;-37.980;-63.602;2022-12-24T15:22:53;28.00;37.50
59961;DHT22;55902;-37.980;-63.602;2022-12-24T15:25:25;28.10;36.90
59961;DHT22;55902;-37.980;-63.602;2022-12-24T15:27:54;28.40;37.60
59961;DHT22;55902;-37.980;-63.602;2022-12-24T15:30:27;28.40;36.30
59961;DHT22;55902;-37.980;-63.602;2022-12-24T15:33:01;28.50;36.60
59961;DHT22;55902;-37.980;-63.602;2022-12-24T15:40:53;28.70;35.40
59961;DHT22;55902;-37.980;-63.602;2022-12-24T15:43:25;28.70;35.50
59961;DHT22;55902;-37.980;-63.602;2022-12-24T15:45:53;28.70;35.00
59961;DHT22;55902;-37.980;-63.602;2022-12-24T15:48:28;28.80;35.40
59961;DHT22;55902;-37.980;-63.602;2022-12-24T15:51:02;28.80;33.60
59961;DHT22;55902;-37.980;-63.602;2022-12-24T15:53:41;28.70;32.80
59961;DHT22;55902;-37.980;-63.602;2022-12-24T15:56:30;28.70;33.10
59961;DHT22;55902;-37.980;-63.602;2022-12-24T16:01:45;28.90;33.50
59961;DHT22;55902;-37.980;-63.602;2022-12-24T16:04:21;29.00;33.20
59961;DHT22;55902;-37.980;-63.602;2022-12-24T16:07:11;29.10;32.80
59961;DHT22;55902;-37.980;-63.602;2022-12-24T16:10:23;29.20;32.50
59961;DHT22;55902;-37.980;-63.602;2022-12-24T16:12:50;29.30;32.80
59961;DHT22;55902;-37.980;-63.602;2022-12-24T16:15:17;29.30;33.20
59961;DHT22;55902;-37.980;-63.602;2022-12-24T16:17:47;29.40;33.80
59961;DHT22;55902;-37.980;-63.602;2022-12-24T16:20:19;29.20;31.70
59961;DHT22;55902;-37.980;-63.602;2022-12-24T16:22:53;29.30;32.40
59961;DHT22;55902;-37.980;-63.602;2022-12-24T16:25:27;29.60;32.80
59961;DHT22;55902;-37.980;-63.602;2022-12-24T16:27:54;29.80;33.70
59961;DHT22;55902;-37.980;-63.602;2022-12-24T16:30:21;29.90;32.80
59961;DHT22;55902;-37.980;-63.602;2022-12-24T16:32:48;29.90;30.90
59961;DHT22;55902;-37.980;-63.602;2022-12-24T16:35:26;29.80;31.70
59961;DHT22;55902;-37.980;-63.602;2022-12-24T16:37:57;29.90;33.20
59961;DHT22;55902;-37.980;-63.602;2022-12-24T16:40:24;30.00;32.90
59961;DHT22;55902;-37.980;-63.602;2022-12-24T16:42:57;30.20;32.60
59961;DHT22;55902;-37.980;-63.602;2022-12-24T16:45:43;30.40;31.90
59961;DHT22;55902;-37.980;-63.602;2022-12-24T16:48:23;30.10;31.90
59961;DHT22;55902;-37.980;-63.602;2022-12-24T16:50:51;30.20;32.30
59961;DHT22;55902;-37.980;-63.602;2022-12-24T16:53:23;30.50;32.10
59961;DHT22;55902;-37.980;-63.602;2022-12-24T16:55:50;31.10;33.50
59961;DHT22;55902;-37.980;-63.602;2022-12-24T16:58:23;31.40;32.70
59961;DHT22;55902;-37.980;-63.602;2022-12-24T17:00:54;30.70;31.90
59961;DHT22;55902;-37.980;-63.602;2022-12-24T17:03:23;29.60;32.20
59961;DHT22;55902;-37.980;-63.602;2022-12-24T17:05:50;29.00;34.70
59961;DHT22;55902;-37.980;-63.602;2022-12-24T17:08:20;29.00;34.50
59961;DHT22;55902;-37.980;-63.602;2022-12-24T17:10:50;29.00;34.40
59961;DHT22;55902;-37.980;-63.602;2022-12-24T17:13:20;28.60;34.60
59961;DHT22;55902;-37.980;-63.602;2022-12-24T17:15:51;28.40;35.40
59961;DHT22;55902;-37.980;-63.602;2022-12-24T17:18:21;28.20;35.10
59961;DHT22;55902;-37.980;-63.602;2022-12-24T17:20:57;27.80;35.10
59961;DHT22;55902;-37.980;-63.602;2022-12-24T17:23:27;27.70;35.50
59961;DHT22;55902;-37.980;-63.602;2022-12-24T17:25:54;28.20;35.60
59961;DHT22;55902;-37.980;-63.602;2022-12-24T17:28:25;28.40;34.80
59961;DHT22;55902;-37.980;-63.602;2022-12-24T17:30:52;28.70;35.10
59961;DHT22;55902;-37.980;-63.602;2022-12-24T17:33:26;29.10;35.70
59961;DHT22;55902;-37.980;-63.602;2022-12-24T17:35:53;29.50;35.00
59961;DHT22;55902;-37.980;-63.602;2022-12-24T17:38:24;29.50;34.60
59961;DHT22;55902;-37.980;-63.602;2022-12-24T17:40:58;29.20;35.30
59961;DHT22;55902;-37.980;-63.602;2022-12-24T17:43:28;28.60;35.60
59961;DHT22;55902;-37.980;-63.602;2022-12-24T17:46:06;28.10;36.60
59961;DHT22;55902;-37.980;-63.602;2022-12-24T17:48:33;28.30;35.30
59961;DHT22;55902;-37.980;-63.602;2022-12-24T17:51:11;28.50;35.80
59961;DHT22;55902;-37.980;-63.602;2022-12-24T17:53:43;28.90;35.40
59961;DHT22;55902;-37.980;-63.602;2022-12-24T17:56:11;28.90;35.70
59961;DHT22;55902;-37.980;-63.602;2022-12-24T17:58:44;29.00;35.90
59961;DHT22;55902;-37.980;-63.602;2022-12-24T18:01:13;28.80;36.00
59961;DHT22;55902;-37.980;-63.602;2022-12-24T18:03:45;28.30;35.60
59961;DHT22;55902;-37.980;-63.602;2022-12-24T18:06:13;27.80;36.20
59961;DHT22;55902;-37.980;-63.602;2022-12-24T18:08:47;27.30;36.80
59961;DHT22;55902;-37.980;-63.602;2022-12-24T18:13:56;26.70;37.20
59961;DHT22;55902;-37.980;-63.602;2022-12-24T18:16:32;26.80;37.40
59961;DHT22;55902;-37.980;-63.602;2022-12-24T18:19:04;26.80;37.30
59961;DHT22;55902;-37.980;-63.602;2022-12-24T18:21:35;26.90;37.50
59961;DHT22;55902;-37.980;-63.602;2022-12-24T18:24:02;26.70;37.60
59961;DHT22;55902;-37.980;-63.602;2022-12-24T18:26:30;26.60;38.40
59961;DHT22;55902;-37.980;-63.602;2022-12-24T18:29:03;26.50;38.20
59961;DHT22;55902;-37.980;-63.602;2022-12-24T18:31:34;26.20;39.10
59961;DHT22;55902;-37.980;-63.602;2022-12-24T18:34:06;26.20;39.00
59961;DHT22;55902;-37.980;-63.602;2022-12-24T18:36:34;26.20;38.70
59961;DHT22;55902;-37.980;-63.602;2022-12-24T18:39:05;26.10;38.80
59961;DHT22;55902;-37.980;-63.602;2022-12-24T18:41:32;26.10;38.80
59961;DHT22;55902;-37.980;-63.602;2022-12-24T18:44:05;26.10;39.50
59961;DHT22;55902;-37.980;-63.602;2022-12-24T18:46:32;26.20;38.30
59961;DHT22;55902;-37.980;-63.602;2022-12-24T18:49:03;26.00;37.20
59961;DHT22;55902;-37.980;-63.602;2022-12-24T18:51:33;25.80;36.90
59961;DHT22;55902;-37.980;-63.602;2022-12-24T18:54:04;25.80;38.80
59961;DHT22;55902;-37.980;-63.602;2022-12-24T18:56:34;25.80;38.90
59961;DHT22;55902;-37.980;-63.602;2022-12-24T18:59:05;25.80;38.50
59961;DHT22;55902;-37.980;-63.602;2022-12-24T19:01:36;25.80;37.00
59961;DHT22;55902;-37.980;-63.602;2022-12-24T19:04:09;25.70;36.30
59961;DHT22;55902;-37.980;-63.602;2022-12-24T19:06:43;25.60;36.80
59961;DHT22;55902;-37.980;-63.602;2022-12-24T19:09:16;25.80;37.20
59961;DHT22;55902;-37.980;-63.602;2022-12-24T19:11:43;25.80;37.00
59961;DHT22;55902;-37.980;-63.602;2022-12-24T19:14:15;25.70;37.10
59961;DHT22;55902;-37.980;-63.602;2022-12-24T19:16:45;25.50;37.20
59961;DHT22;55902;-37.980;-63.602;2022-12-24T19:19:15;25.30;37.50
59961;DHT22;55902;-37.980;-63.602;2022-12-24T19:21:46;25.30;37.40
59961;DHT22;55902;-37.980;-63.602;2022-12-24T19:24:18;25.50;37.30
59961;DHT22;55902;-37.980;-63.602;2022-12-24T19:26:45;25.70;38.10